sensor_id;sensor_type;location;lat;lon;timestamp;temperature;humidity
13898;DHT22;7019;50.766;4.474;2023-09-19T00:02:04;14.50;99.90
13898;DHT22;7019;50.766;4.474;2023-09-19T00:04:35;14.50;99.90
13898;DHT22;7019;50.766;4.474;2023-09-19T00:07:05;14.40;99.90
13898;DHT22;7019;50.766;4.474;2023-09-19T00:09:32;14.40;99.90
13898;DHT22;7019;50.766;4.474;2023-09-19T00:12:03;14.40;99.90
13898;DHT22;7019;50.766;4.474;2023-09-19T00:14:31;14.40;99.90
13898;DHT22;7019;50.766;4.474;2023-09-19T00:17:00;14.40;99.90
13898;DHT22;7019;50.766;4.474;2023-09-19T00:19:31;14.30;99.90
13898;DHT22;7019;50.766;4.474;2023-09-19T00:22:01;14.40;99.90
13898;DHT22;7019;50.766;4.474;2023-09-19T00:24:28;14.40;99.90
13898;DHT22;7019;50.766;4.474;2023-09-19T00:26:55;14.30;99.90
13898;DHT22;7019;50.766;4.474;2023-09-19T00:29:25;14.30;99.90
13898;DHT22;7019;50.766;4.474;2023-09-19T00:31:55;14.30;99.90
13898;DHT22;7019;50.766;4.474;2023-09-19T00:34:23;14.20;99.90
13898;DHT22;7019;50.766;4.474;2023-09-19T00:36:51;14.20;99.90
13898;DHT22;7019;50.766;4.474;2023-09-19T00:39:21;14.20;99.90
13898;DHT22;7019;50.766;4.474;2023-09-19T00:41:51;14.20;99.90
13898;DHT22;7019;50.766;4.474;2023-09-19T00:44:18;14.20;99.90
13898;DHT22;7019;50.766;4.474;2023-09-19T00:46:47;14.20;99.90
13898;DHT22;7019;50.766;4.474;2023-09-19T00:49:15;14.20;99.90
13898;DHT22;7019;50.766;4.474;2023-09-19T00:51:43;14.20;99.90
13898;DHT22;7019;50.766;4.474;2023-09-19T00:54:13;14.20;99.90
13898;DHT22;7019;50.766;4.474;2023-09-19T00:56:45;14.20;99.90
13898;DHT22;7019;50.766;4.474;2023-09-19T00:59:14;14.20;99.90
13898;DHT22;7019;50.766;4.474;2023-09-19T01:01:42;14.20;99.90
13898;DHT22;7019;50.766;4.474;2023-09-19T01:04:11;14.20;99.90
13898;DHT22;7019;50.766;4.474;2023-09-19T01:06:39;14.10;99.90
13898;DHT22;7019;50.766;4.474;2023-09-19T01:09:06;14.10;99.90
13898;DHT22;7019;50.766;4.474;2023-09-19T01:11:40;14.00;99.90
13898;DHT22;7019;50.766;4.474;2023-09-19T01:14:18;14.00;99.90
13898;DHT22;7019;50.766;4.474;2023-09-19T01:16:53;13.90;99.90
13898;DHT22;7019;50.766;4.474;2023-09-19T01:19:56;13.90;99.90
13898;DHT22;7019;50.766;4.474;2023-09-19T01:22:35;13.90;99.90
13898;DHT22;7019;50.766;4.474;2023-09-19T01:25:20;13.80;99.90
13898;DHT22;7019;50.766;4.474;2023-09-19T01:28:13;13.80;99.90
13898;DHT22;7019;50.766;4.474;2023-09-19T01:30:44;13.70;99.90
13898;DHT22;7019;50.766;4.474;2023-09-19T01:33:13;13.70;99.90
13898;DHT22;7019;50.766;4.474;2023-09-19T01:35:41;13.70;99.90
13898;DHT22;7019;50.766;4.474;2023-09-19T01:38:08;13.70;99.90
13898;DHT22;7019;50.766;4.474;2023-09-19T01:40:41;13.70;99.90
13898;DHT22;7019;50.766;4.474;2023-09-19T01:43:12;13.60;99.90
13898;DHT22;7019;50.766;4.474;2023-09-19T01:45:50;13.60;99.90
13898;DHT22;7019;50.766;4.474;2023-09-19T01:48:35;13.60;99.90
13898;DHT22;7019;50.766;4.474;2023-09-19T01:51:07;13.60;99.90
13898;DHT22;7019;50.766;4.474;2023-09-19T01:53:40;13.60;99.90
13898;DHT22;7019;50.766;4.474;2023-09-19T01:56:09;13.70;99.90
13898;DHT22;7019;50.766;4.474;2023-09-19T01:58:42;13.70;99.90
13898;DHT22;7019;50.766;4.474;2023-09-19T02:01:19;13.70;99.90
13898;DHT22;7019;50.766;4.474;2023-09-19T02:03:47;13.70;99.90
13898;DHT22;7019;50.766;4.474;2023-09-19T02:06:15;13.70;99.90
13898;DHT22;7019;50.766;4.474;2023-09-19T02:08:43;13.60;99.90
13898;DHT22;7019;50.766;4.474;2023-09-19T02:11:10;13.60;99.90
13898;DHT22;7019;50.766;4.474;2023-09-19T02:13:38;13.60;99.90
13898;DHT22;7019;50.766;4.474;2023-09-19T02:16:06;13.60;99.90
13898;DHT22;7019;50.766;4.474;2023-09-19T02:18:36;13.50;99.90
13898;DHT22;7019;50.766;4.474;2023-09-19T02:21:04;13.50;99.90
13898;DHT22;7019;50.766;4.474;2023-09-19T02:23:32;13.50;99.90
13898;DHT22;7019;50.766;4.474;2023-09-19T02:25:59;13.50;99.90
13898;DHT22;7019;50.766;4.474;2023-09-19T02:28:27;13.50;99.90
13898;DHT22;7019;50.766;4.474;2023-09-19T02:30:56;13.50;99.90
13898;DHT22;7019;50.766;4.474;2023-09-19T02:33:23;13.40;99.90
13898;DHT22;7019;50.766;4.474;2023-09-19T02:35:54;13.40;99.90
13898;DHT22;7019;50.766;4.474;2023-09-19T02:38:23;13.40;99.90
13898;DHT22;7019;50.766;4.474;2023-09-19T02:40:51;13.40;99.90
13898;DHT22;7019;50.766;4.474;2023-09-19T02:43:21;13.50;99.90
13898;DHT22;7019;50.766;4.474;2023-09-19T02:45:48;13.50;99.90
13898;DHT22;7019;50.766;4.474;2023-09-19T02:48:16;13.60;99.90
13898;DHT22;7019;50.766;4.474;2023-09-19T02:50:44;13.70;99.90
13898;DHT22;7019;50.766;4.474;2023-09-19T02:53:13;13.80;99.90
13898;DHT22;7019;50.766;4.474;2023-09-19T02:55:40;13.90;99.90
13898;DHT22;7019;50.766;4.474;2023-09-19T02:58:08;14.00;99.90
13898;DHT22;7019;50.766;4.474;2023-09-19T03:00:37;14.10;99.90
13898;DHT22;7019;50.766;4.474;2023-09-19T03:03:04;14.10;99.90
13898;DHT22;7019;50.766;4.474;2023-09-19T03:05:33;14.20;99.90
13898;DHT22;7019;50.766;4.474;2023-09-19T03:08:01;14.20;99.90
13898;DHT22;7019;50.766;4.474;2023-09-19T03:10:30;14.20;99.90
13898;DHT22;7019;50.766;4.474;2023-09-19T03:12:58;14.20;99.90
13898;DHT22;7019;50.766;4.474;2023-09-19T03:15:25;14.20;99.90
13898;DHT22;7019;50.766;4.474;2023-09-19T03:17:52;14.20;99.90
13898;DHT22;7019;50.766;4.474;2023-09-19T03:20:20;14.20;99.90
13898;DHT22;7019;50.766;4.474;2023-09-19T03:22:48;14.10;99.90
13898;DHT22;7019;50.766;4.474;2023-09-19T03:25:15;14.00;99.90
13898;DHT22;7019;50.766;4.474;2023-09-19T03:27:44;14.00;99.90
13898;DHT22;7019;50.766;4.474;2023-09-19T03:30:12;14.00;99.90
13898;DHT22;7019;50.766;4.474;2023-09-19T03:32:44;13.90;99.90
13898;DHT22;7019;50.766;4.474;2023-09-19T03:35:12;14.00;99.90
13898;DHT22;7019;50.766;4.474;2023-09-19T03:37:40;14.00;99.90
13898;DHT22;7019;50.766;4.474;2023-09-19T03:40:08;13.90;99.90
13898;DHT22;7019;50.766;4.474;2023-09-19T03:42:38;13.90;99.90
13898;DHT22;7019;50.766;4.474;2023-09-19T03:45:08;14.00;99.90
13898;DHT22;7019;50.766;4.474;2023-09-19T03:47:38;14.00;99.90
13898;DHT22;7019;50.766;4.474;2023-09-19T03:50:06;14.00;99.90
13898;DHT22;7019;50.766;4.474;2023-09-19T03:52:34;14.00;99.90
13898;DHT22;7019;50.766;4.474;2023-09-19T03:55:01;13.90;99.90
13898;DHT22;7019;50.766;4.474;2023-09-19T03:57:30;13.90;99.90
13898;DHT22;7019;50.766;4.474;2023-09-19T03:59:57;13.80;99.90
13898;DHT22;7019;50.766;4.474;2023-09-19T04:02:25;13.70;99.90
13898;DHT22;7019;50.766;4.474;2023-09-19T04:04:58;13.70;99.90
13898;DHT22;7019;50.766;4.474;2023-09-19T04:07:25;13.70;99.90
13898;DHT22;7019;50.766;4.474;2023-09-19T04:09:54;13.60;99.90
13898;DHT22;7019;50.766;4.474;2023-09-19T04:12:21;13.60;99.90
13898;DHT22;7019;50.766;4.474;2023-09-19T04:14:48;13.60;99.90
13898;DHT22;7019;50.766;4.474;2023-09-19T04:17:16;13.60;99.90
13898;DHT22;7019;50.766;4.474;2023-09-19T04:19:45;13.60;99.90
13898;DHT22;7019;50.766;4.474;2023-09-19T04:22:12;13.60;99.90
13898;DHT22;7019;50.766;4.474;2023-09-19T04:24:39;13.70;99.90
13898;DHT22;7019;50.766;4.474;2023-09-19T04:27:06;13.70;99.90
13898;DHT22;7019;50.766;4.474;2023-09-19T04:29:34;13.80;99.90
13898;DHT22;7019;50.766;4.474;2023-09-19T04:32:01;13.70;99.90
13898;DHT22;7019;50.766;4.474;2023-09-19T04:34:30;13.70;99.90
13898;DHT22;7019;50.766;4.474;2023-09-19T04:36:58;13.70;99.90
13898;DHT22;7019;50.766;4.474;2023-09-19T04:39:26;13.70;99.90
13898;DHT22;7019;50.766;4.474;2023-09-19T04:41:54;13.70;99.90
13898;DHT22;7019;50.766;4.474;2023-09-19T04:44:21;13.70;99.90
13898;DHT22;7019;50.766;4.474;2023-09-19T04:46:48;13.60;99.90
13898;DHT22;7019;50.766;4.474;2023-09-19T04:49:15;13.60;99.90
13898;DHT22;7019;50.766;4.474;2023-09-19T04:51:43;13.50;99.90
13898;DHT22;7019;50.766;4.474;2023-09-19T04:54:14;13.50;99.90
13898;DHT22;7019;50.766;4.474;2023-09-19T04:56:41;13.50;99.90
13898;DHT22;7019;50.766;4.474;2023-09-19T04:59:08;13.40;99.90
13898;DHT22;7019;50.766;4.474;2023-09-19T05:01:36;13.40;99.90
13898;DHT22;7019;50.766;4.474;2023-09-19T05:04:04;13.40;99.90
13898;DHT22;7019;50.766;4.474;2023-09-19T05:06:31;13.30;99.90
13898;DHT22;7019;50.766;4.474;2023-09-19T05:09:01;13.30;99.90
13898;DHT22;7019;50.766;4.474;2023-09-19T05:11:32;13.30;99.90
13898;DHT22;7019;50.766;4.474;2023-09-19T05:13:59;13.30;99.90
13898;DHT22;7019;50.766;4.474;2023-09-19T05:16:29;13.20;99.90
13898;DHT22;7019;50.766;4.474;2023-09-19T05:18:57;13.20;99.90
13898;DHT22;7019;50.766;4.474;2023-09-19T05:21:25;13.20;99.90
13898;DHT22;7019;50.766;4.474;2023-09-19T05:23:54;13.20;99.90
13898;DHT22;7019;50.766;4.474;2023-09-19T05:26:21;13.10;99.90
13898;DHT22;7019;50.766;4.474;2023-09-19T05:28:50;13.10;99.90
13898;DHT22;7019;50.766;4.474;2023-09-19T05:31:18;13.10;99.90
13898;DHT22;7019;50.766;4.474;2023-09-19T05:33:46;13.10;99.90
13898;DHT22;7019;50.766;4.474;2023-09-19T05:36:13;13.20;99.90
13898;DHT22;7019;50.766;4.474;2023-09-19T05:38:43;13.20;99.90
13898;DHT22;7019;50.766;4.474;2023-09-19T05:41:10;13.20;99.90
13898;DHT22;7019;50.766;4.474;2023-09-19T05:43:39;13.20;99.90
13898;DHT22;7019;50.766;4.474;2023-09-19T05:46:08;13.20;99.90
13898;DHT22;7019;50.766;4.474;2023-09-19T05:48:35;13.20;99.90
13898;DHT22;7019;50.766;4.474;2023-09-19T05:51:05;13.20;99.90
13898;DHT22;7019;50.766;4.474;2023-09-19T05:53:32;13.30;99.90
13898;DHT22;7019;50.766;4.474;2023-09-19T05:55:59;13.30;99.90
13898;DHT22;7019;50.766;4.474;2023-09-19T05:58:26;13.40;99.90
13898;DHT22;7019;50.766;4.474;2023-09-19T06:00:54;13.50;99.90
13898;DHT22;7019;50.766;4.474;2023-09-19T06:03:23;13.60;99.90
13898;DHT22;7019;50.766;4.474;2023-09-19T06:05:50;13.60;99.90
13898;DHT22;7019;50.766;4.474;2023-09-19T06:08:18;13.70;99.90
13898;DHT22;7019;50.766;4.474;2023-09-19T06:10:46;13.70;99.90
13898;DHT22;7019;50.766;4.474;2023-09-19T06:13:14;13.80;99.90
13898;DHT22;7019;50.766;4.474;2023-09-19T06:15:41;13.80;99.90
13898;DHT22;7019;50.766;4.474;2023-09-19T06:18:11;13.80;99.90
13898;DHT22;7019;50.766;4.474;2023-09-19T06:20:42;13.90;99.90
13898;DHT22;7019;50.766;4.474;2023-09-19T06:23:10;13.90;99.90
13898;DHT22;7019;50.766;4.474;2023-09-19T06:25:37;14.00;99.90
13898;DHT22;7019;50.766;4.474;2023-09-19T06:28:05;14.10;99.90
13898;DHT22;7019;50.766;4.474;2023-09-19T06:30:34;14.10;99.90
13898;DHT22;7019;50.766;4.474;2023-09-19T06:33:01;14.20;99.90
13898;DHT22;7019;50.766;4.474;2023-09-19T06:35:32;14.20;99.90
13898;DHT22;7019;50.766;4.474;2023-09-19T06:38:02;14.20;99.90
13898;DHT22;7019;50.766;4.474;2023-09-19T06:40:29;14.20;99.90
13898;DHT22;7019;50.766;4.474;2023-09-19T06:42:57;14.30;99.90
13898;DHT22;7019;50.766;4.474;2023-09-19T06:45:24;14.30;99.90
13898;DHT22;7019;50.766;4.474;2023-09-19T06:47:52;14.40;99.90
13898;DHT22;7019;50.766;4.474;2023-09-19T06:50:21;14.40;99.90
13898;DHT22;7019;50.766;4.474;2023-09-19T06:52:49;14.40;99.90
13898;DHT22;7019;50.766;4.474;2023-09-19T06:55:19;14.50;99.90
13898;DHT22;7019;50.766;4.474;2023-09-19T06:57:46;14.50;99.90
13898;DHT22;7019;50.766;4.474;2023-09-19T07:00:14;14.50;99.90
13898;DHT22;7019;50.766;4.474;2023-09-19T07:02:44;14.60;99.90
13898;DHT22;7019;50.766;4.474;2023-09-19T07:05:11;14.70;99.90
13898;DHT22;7019;50.766;4.474;2023-09-19T07:07:38;15.00;99.90
13898;DHT22;7019;50.766;4.474;2023-09-19T07:10:06;15.20;99.90
13898;DHT22;7019;50.766;4.474;2023-09-19T07:12:35;15.30;99.90
13898;DHT22;7019;50.766;4.474;2023-09-19T07:15:02;15.50;99.90
13898;DHT22;7019;50.766;4.474;2023-09-19T07:17:31;15.70;99.90
13898;DHT22;7019;50.766;4.474;2023-09-19T07:19:59;15.80;99.90
13898;DHT22;7019;50.766;4.474;2023-09-19T07:22:26;15.90;99.90
13898;DHT22;7019;50.766;4.474;2023-09-19T07:24:53;16.10;99.90
13898;DHT22;7019;50.766;4.474;2023-09-19T07:27:20;16.30;99.90
13898;DHT22;7019;50.766;4.474;2023-09-19T07:29:48;16.40;99.90
13898;DHT22;7019;50.766;4.474;2023-09-19T07:32:15;16.50;99.90
13898;DHT22;7019;50.766;4.474;2023-09-19T07:34:43;16.60;99.90
13898;DHT22;7019;50.766;4.474;2023-09-19T07:37:10;16.60;99.90
13898;DHT22;7019;50.766;4.474;2023-09-19T07:39:38;16.50;99.90
13898;DHT22;7019;50.766;4.474;2023-09-19T07:42:07;16.50;99.90
13898;DHT22;7019;50.766;4.474;2023-09-19T07:44:35;16.40;99.90
13898;DHT22;7019;50.766;4.474;2023-09-19T07:47:04;16.30;99.90
13898;DHT22;7019;50.766;4.474;2023-09-19T07:49:31;16.30;99.90
13898;DHT22;7019;50.766;4.474;2023-09-19T07:51:58;16.30;99.90
13898;DHT22;7019;50.766;4.474;2023-09-19T07:54:26;16.20;99.90
13898;DHT22;7019;50.766;4.474;2023-09-19T07:56:56;16.20;99.90
13898;DHT22;7019;50.766;4.474;2023-09-19T07:59:24;16.20;99.90
13898;DHT22;7019;50.766;4.474;2023-09-19T08:01:51;16.20;99.90
13898;DHT22;7019;50.766;4.474;2023-09-19T08:04:20;16.20;99.90
13898;DHT22;7019;50.766;4.474;2023-09-19T08:06:47;16.20;99.90
13898;DHT22;7019;50.766;4.474;2023-09-19T08:09:17;16.20;99.90
13898;DHT22;7019;50.766;4.474;2023-09-19T08:11:46;16.20;99.90
13898;DHT22;7019;50.766;4.474;2023-09-19T08:14:13;16.10;99.90
13898;DHT22;7019;50.766;4.474;2023-09-19T08:16:41;16.20;99.90
13898;DHT22;7019;50.766;4.474;2023-09-19T08:19:09;16.30;99.90
13898;DHT22;7019;50.766;4.474;2023-09-19T08:21:38;16.30;99.90
13898;DHT22;7019;50.766;4.474;2023-09-19T08:24:05;16.40;99.90
13898;DHT22;7019;50.766;4.474;2023-09-19T08:26:34;16.50;99.90
13898;DHT22;7019;50.766;4.474;2023-09-19T08:29:03;16.50;99.90
13898;DHT22;7019;50.766;4.474;2023-09-19T08:31:32;16.60;99.90
13898;DHT22;7019;50.766;4.474;2023-09-19T08:33:59;16.70;99.90
13898;DHT22;7019;50.766;4.474;2023-09-19T08:36:26;16.70;99.90
13898;DHT22;7019;50.766;4.474;2023-09-19T08:38:55;16.70;99.90
13898;DHT22;7019;50.766;4.474;2023-09-19T08:41:22;16.70;99.90
13898;DHT22;7019;50.766;4.474;2023-09-19T08:43:49;16.70;99.90
13898;DHT22;7019;50.766;4.474;2023-09-19T08:46:19;16.80;99.90
13898;DHT22;7019;50.766;4.474;2023-09-19T08:48:52;16.90;99.90
13898;DHT22;7019;50.766;4.474;2023-09-19T08:51:27;17.00;99.90
13898;DHT22;7019;50.766;4.474;2023-09-19T08:54:06;17.10;99.90
13898;DHT22;7019;50.766;4.474;2023-09-19T08:56:34;17.20;99.90
13898;DHT22;7019;50.766;4.474;2023-09-19T08:59:03;17.30;99.90
13898;DHT22;7019;50.766;4.474;2023-09-19T09:01:33;17.50;99.90
13898;DHT22;7019;50.766;4.474;2023-09-19T09:04:02;17.50;99.90
13898;DHT22;7019;50.766;4.474;2023-09-19T09:06:31;17.60;99.90
13898;DHT22;7019;50.766;4.474;2023-09-19T09:09:01;17.70;99.90
13898;DHT22;7019;50.766;4.474;2023-09-19T09:11:29;17.90;99.90
13898;DHT22;7019;50.766;4.474;2023-09-19T09:13:58;18.10;99.90
13898;DHT22;7019;50.766;4.474;2023-09-19T09:16:26;18.50;99.90
13898;DHT22;7019;50.766;4.474;2023-09-19T09:18:53;18.90;99.90
13898;DHT22;7019;50.766;4.474;2023-09-19T09:21:20;19.10;99.90
13898;DHT22;7019;50.766;4.474;2023-09-19T09:23:48;19.20;99.90
13898;DHT22;7019;50.766;4.474;2023-09-19T09:29:07;19.70;99.90
13898;DHT22;7019;50.766;4.474;2023-09-19T09:31:34;19.90;99.90
13898;DHT22;7019;50.766;4.474;2023-09-19T09:34:01;19.70;99.90
13898;DHT22;7019;50.766;4.474;2023-09-19T09:36:35;19.60;99.90
13898;DHT22;7019;50.766;4.474;2023-09-19T09:39:03;19.40;99.90
13898;DHT22;7019;50.766;4.474;2023-09-19T09:41:43;19.40;99.90
13898;DHT22;7019;50.766;4.474;2023-09-19T09:44:15;19.30;99.90
13898;DHT22;7019;50.766;4.474;2023-09-19T09:46:43;19.30;99.90
13898;DHT22;7019;50.766;4.474;2023-09-19T09:49:48;19.30;99.90
13898;DHT22;7019;50.766;4.474;2023-09-19T09:52:44;19.10;99.90
13898;DHT22;7019;50.766;4.474;2023-09-19T09:55:12;19.10;99.90
13898;DHT22;7019;50.766;4.474;2023-09-19T09:57:40;19.10;99.90
13898;DHT22;7019;50.766;4.474;2023-09-19T10:00:10;19.10;99.90
13898;DHT22;7019;50.766;4.474;2023-09-19T10:02:46;19.00;99.90
13898;DHT22;7019;50.766;4.474;2023-09-19T10:05:14;18.90;99.90
13898;DHT22;7019;50.766;4.474;2023-09-19T10:07:47;18.80;99.90
13898;DHT22;7019;50.766;4.474;2023-09-19T10:10:30;18.70;99.90
13898;DHT22;7019;50.766;4.474;2023-09-19T10:13:06;18.70;99.90
13898;DHT22;7019;50.766;4.474;2023-09-19T10:15:34;18.90;99.90
13898;DHT22;7019;50.766;4.474;2023-09-19T10:18:04;18.90;99.90
13898;DHT22;7019;50.766;4.474;2023-09-19T10:20:34;19.10;99.90
13898;DHT22;7019;50.766;4.474;2023-09-19T10:23:06;19.20;99.90
13898;DHT22;7019;50.766;4.474;2023-09-19T10:25:39;19.20;99.90
13898;DHT22;7019;50.766;4.474;2023-09-19T10:28:09;19.20;99.90
13898;DHT22;7019;50.766;4.474;2023-09-19T10:30:40;19.30;99.90
13898;DHT22;7019;50.766;4.474;2023-09-19T10:33:11;19.70;99.90
13898;DHT22;7019;50.766;4.474;2023-09-19T10:35:39;19.90;99.90
13898;DHT22;7019;50.766;4.474;2023-09-19T10:38:07;20.00;99.90
13898;DHT22;7019;50.766;4.474;2023-09-19T10:40:37;20.00;99.90
13898;DHT22;7019;50.766;4.474;2023-09-19T10:43:12;19.90;99.90
13898;DHT22;7019;50.766;4.474;2023-09-19T10:45:45;19.90;99.90
13898;DHT22;7019;50.766;4.474;2023-09-19T10:48:15;20.10;99.90
13898;DHT22;7019;50.766;4.474;2023-09-19T10:50:46;20.00;99.90
13898;DHT22;7019;50.766;4.474;2023-09-19T10:53:17;19.90;99.90
13898;DHT22;7019;50.766;4.474;2023-09-19T10:55:51;19.80;99.90
13898;DHT22;7019;50.766;4.474;2023-09-19T10:58:31;19.80;99.90
13898;DHT22;7019;50.766;4.474;2023-09-19T11:01:00;20.00;99.90
13898;DHT22;7019;50.766;4.474;2023-09-19T11:03:37;20.00;99.90
13898;DHT22;7019;50.766;4.474;2023-09-19T11:06:11;20.10;99.90
13898;DHT22;7019;50.766;4.474;2023-09-19T11:08:59;20.20;99.90
13898;DHT22;7019;50.766;4.474;2023-09-19T11:11:49;20.10;99.90
13898;DHT22;7019;50.766;4.474;2023-09-19T11:14:37;20.20;99.90
13898;DHT22;7019;50.766;4.474;2023-09-19T11:17:32;20.20;99.90
13898;DHT22;7019;50.766;4.474;2023-09-19T11:20:21;20.30;99.90
13898;DHT22;7019;50.766;4.474;2023-09-19T11:23:24;20.00;99.90
13898;DHT22;7019;50.766;4.474;2023-09-19T11:25:53;19.90;99.90
13898;DHT22;7019;50.766;4.474;2023-09-19T11:28:30;19.90;99.90
13898;DHT22;7019;50.766;4.474;2023-09-19T11:30:58;20.10;99.90
13898;DHT22;7019;50.766;4.474;2023-09-19T11:33:26;20.30;99.90
13898;DHT22;7019;50.766;4.474;2023-09-19T11:36:02;20.60;99.90
13898;DHT22;7019;50.766;4.474;2023-09-19T11:38:57;21.00;99.90
13898;DHT22;7019;50.766;4.474;2023-09-19T11:41:39;21.30;99.90
13898;DHT22;7019;50.766;4.474;2023-09-19T11:44:32;21.50;99.90
13898;DHT22;7019;50.766;4.474;2023-09-19T11:47:02;21.40;99.90
13898;DHT22;7019;50.766;4.474;2023-09-19T11:49:30;21.10;99.90
13898;DHT22;7019;50.766;4.474;2023-09-19T11:52:00;21.00;99.90
13898;DHT22;7019;50.766;4.474;2023-09-19T11:54:30;21.00;99.90
13898;DHT22;7019;50.766;4.474;2023-09-19T11:56:59;20.80;99.90
13898;DHT22;7019;50.766;4.474;2023-09-19T11:59:28;20.60;99.90
13898;DHT22;7019;50.766;4.474;2023-09-19T12:01:56;20.40;99.90
13898;DHT22;7019;50.766;4.474;2023-09-19T12:04:38;20.50;99.90
13898;DHT22;7019;50.766;4.474;2023-09-19T12:07:09;20.70;99.90
13898;DHT22;7019;50.766;4.474;2023-09-19T12:09:41;20.80;99.90
13898;DHT22;7019;50.766;4.474;2023-09-19T12:12:10;20.80;99.90
13898;DHT22;7019;50.766;4.474;2023-09-19T12:14:41;20.50;99.90
13898;DHT22;7019;50.766;4.474;2023-09-19T12:17:09;20.50;99.90
13898;DHT22;7019;50.766;4.474;2023-09-19T12:19:49;20.40;99.90
13898;DHT22;7019;50.766;4.474;2023-09-19T12:22:17;20.40;99.90
13898;DHT22;7019;50.766;4.474;2023-09-19T12:24:46;20.30;99.90
13898;DHT22;7019;50.766;4.474;2023-09-19T12:27:13;20.10;99.90
13898;DHT22;7019;50.766;4.474;2023-09-19T12:29:44;19.80;99.90
13898;DHT22;7019;50.766;4.474;2023-09-19T12:32:12;19.70;99.90
13898;DHT22;7019;50.766;4.474;2023-09-19T12:34:51;19.60;99.90
13898;DHT22;7019;50.766;4.474;2023-09-19T12:37:18;19.50;99.90
13898;DHT22;7019;50.766;4.474;2023-09-19T12:39:49;19.50;99.90
13898;DHT22;7019;50.766;4.474;2023-09-19T12:42:19;19.50;99.90
13898;DHT22;7019;50.766;4.474;2023-09-19T12:44:48;19.50;99.90
13898;DHT22;7019;50.766;4.474;2023-09-19T12:47:18;19.50;99.90
13898;DHT22;7019;50.766;4.474;2023-09-19T12:50:12;19.50;99.90
13898;DHT22;7019;50.766;4.474;2023-09-19T12:52:42;19.60;99.90
13898;DHT22;7019;50.766;4.474;2023-09-19T12:55:20;19.70;99.90
13898;DHT22;7019;50.766;4.474;2023-09-19T12:58:03;19.90;99.90
13898;DHT22;7019;50.766;4.474;2023-09-19T13:00:36;20.30;99.90
13898;DHT22;7019;50.766;4.474;2023-09-19T13:03:14;20.50;99.90
13898;DHT22;7019;50.766;4.474;2023-09-19T13:05:49;20.50;99.90
13898;DHT22;7019;50.766;4.474;2023-09-19T13:08:18;20.50;99.90
13898;DHT22;7019;50.766;4.474;2023-09-19T13:11:06;20.40;99.90
13898;DHT22;7019;50.766;4.474;2023-09-19T13:13:36;20.30;99.90
13898;DHT22;7019;50.766;4.474;2023-09-19T13:16:04;20.20;99.90
13898;DHT22;7019;50.766;4.474;2023-09-19T13:18:42;20.20;99.90
13898;DHT22;7019;50.766;4.474;2023-09-19T13:21:13;20.10;99.90
13898;DHT22;7019;50.766;4.474;2023-09-19T13:23:51;20.10;99.90
13898;DHT22;7019;50.766;4.474;2023-09-19T13:26:20;20.10;99.90
13898;DHT22;7019;50.766;4.474;2023-09-19T13:28:48;20.00;99.90
13898;DHT22;7019;50.766;4.474;2023-09-19T13:31:16;20.00;99.90
13898;DHT22;7019;50.766;4.474;2023-09-19T13:33:44;20.00;99.90
13898;DHT22;7019;50.766;4.474;2023-09-19T13:36:13;19.90;99.90
13898;DHT22;7019;50.766;4.474;2023-09-19T13:38:40;19.90;99.90
13898;DHT22;7019;50.766;4.474;2023-09-19T13:41:09;19.90;99.90
13898;DHT22;7019;50.766;4.474;2023-09-19T13:43:36;19.90;99.90
13898;DHT22;7019;50.766;4.474;2023-09-19T13:46:04;19.90;99.90
13898;DHT22;7019;50.766;4.474;2023-09-19T13:48:33;19.90;99.90
13898;DHT22;7019;50.766;4.474;2023-09-19T13:51:04;19.90;99.90
13898;DHT22;7019;50.766;4.474;2023-09-19T13:53:32;19.80;99.90
13898;DHT22;7019;50.766;4.474;2023-09-19T13:56:00;19.90;99.90
13898;DHT22;7019;50.766;4.474;2023-09-19T13:58:27;19.90;99.90
13898;DHT22;7019;50.766;4.474;2023-09-19T14:00:56;20.10;99.90
13898;DHT22;7019;50.766;4.474;2023-09-19T14:03:24;20.40;99.90
13898;DHT22;7019;50.766;4.474;2023-09-19T14:05:54;20.40;99.90
13898;DHT22;7019;50.766;4.474;2023-09-19T14:08:21;20.50;99.90
13898;DHT22;7019;50.766;4.474;2023-09-19T14:10:50;20.40;99.90
13898;DHT22;7019;50.766;4.474;2023-09-19T14:13:19;20.40;99.90
13898;DHT22;7019;50.766;4.474;2023-09-19T14:15:46;20.40;99.90
13898;DHT22;7019;50.766;4.474;2023-09-19T14:18:13;20.30;99.90
13898;DHT22;7019;50.766;4.474;2023-09-19T14:20:40;20.10;99.90
13898;DHT22;7019;50.766;4.474;2023-09-19T14:23:07;20.00;99.90
13898;DHT22;7019;50.766;4.474;2023-09-19T14:25:35;19.80;99.90
13898;DHT22;7019;50.766;4.474;2023-09-19T14:28:05;19.70;99.90
13898;DHT22;7019;50.766;4.474;2023-09-19T14:30:34;19.80;99.90
13898;DHT22;7019;50.766;4.474;2023-09-19T14:33:03;19.80;99.90
13898;DHT22;7019;50.766;4.474;2023-09-19T14:35:30;20.10;99.90
13898;DHT22;7019;50.766;4.474;2023-09-19T14:37:57;20.30;99.90
13898;DHT22;7019;50.766;4.474;2023-09-19T14:40:24;20.40;99.90
13898;DHT22;7019;50.766;4.474;2023-09-19T14:42:52;20.40;99.90
13898;DHT22;7019;50.766;4.474;2023-09-19T14:45:21;20.40;99.90
13898;DHT22;7019;50.766;4.474;2023-09-19T14:47:51;20.50;99.90
13898;DHT22;7019;50.766;4.474;2023-09-19T14:50:20;20.50;99.90
13898;DHT22;7019;50.766;4.474;2023-09-19T14:52:48;20.60;99.90
13898;DHT22;7019;50.766;4.474;2023-09-19T14:55:17;20.60;99.90
13898;DHT22;7019;50.766;4.474;2023-09-19T14:57:49;20.60;99.90
13898;DHT22;7019;50.766;4.474;2023-09-19T15:00:17;20.60;99.90
13898;DHT22;7019;50.766;4.474;2023-09-19T15:02:48;20.50;99.90
13898;DHT22;7019;50.766;4.474;2023-09-19T15:05:15;20.60;99.90
13898;DHT22;7019;50.766;4.474;2023-09-19T15:07:43;20.60;99.90
13898;DHT22;7019;50.766;4.474;2023-09-19T15:10:10;20.50;99.90
13898;DHT22;7019;50.766;4.474;2023-09-19T15:12:38;20.50;99.90
13898;DHT22;7019;50.766;4.474;2023-09-19T15:15:06;20.50;99.90
13898;DHT22;7019;50.766;4.474;2023-09-19T15:17:34;20.40;99.90
13898;DHT22;7019;50.766;4.474;2023-09-19T15:20:04;20.20;99.90
13898;DHT22;7019;50.766;4.474;2023-09-19T15:22:32;20.00;99.90
13898;DHT22;7019;50.766;4.474;2023-09-19T15:25:00;19.80;99.90
13898;DHT22;7019;50.766;4.474;2023-09-19T15:27:27;19.70;99.90
13898;DHT22;7019;50.766;4.474;2023-09-19T15:29:56;19.60;99.90
13898;DHT22;7019;50.766;4.474;2023-09-19T15:32:24;19.50;99.90
13898;DHT22;7019;50.766;4.474;2023-09-19T15:34:51;19.50;99.90
13898;DHT22;7019;50.766;4.474;2023-09-19T15:37:20;19.50;99.90
13898;DHT22;7019;50.766;4.474;2023-09-19T15:39:48;19.40;99.90
13898;DHT22;7019;50.766;4.474;2023-09-19T15:42:15;19.30;99.90
13898;DHT22;7019;50.766;4.474;2023-09-19T15:44:42;19.20;99.90
13898;DHT22;7019;50.766;4.474;2023-09-19T15:47:12;19.10;99.90
13898;DHT22;7019;50.766;4.474;2023-09-19T15:49:40;19.00;99.90
13898;DHT22;7019;50.766;4.474;2023-09-19T15:52:07;19.10;99.90
13898;DHT22;7019;50.766;4.474;2023-09-19T15:54:35;19.10;99.90
13898;DHT22;7019;50.766;4.474;2023-09-19T15:57:07;19.20;99.90
13898;DHT22;7019;50.766;4.474;2023-09-19T15:59:38;19.20;99.90
13898;DHT22;7019;50.766;4.474;2023-09-19T16:02:05;19.20;99.90
13898;DHT22;7019;50.766;4.474;2023-09-19T16:04:33;19.10;99.90
13898;DHT22;7019;50.766;4.474;2023-09-19T16:07:00;19.00;99.90